Have a Safe July 4th! 

Flight Track Log - Related Links

Times and Time Zones

All times are in EST time to prevent confusion due to time zone crossing. See the N825TD flight status page for this flight to view local times or setup timezone preferences in your user account.

Time Position Orientation Groundspeed Altitude Reporting Facility
EST Latitude Longitude Course Direction KTS MPH feet Rate Location/Type
Tue 11:54:00 AM 25.9081 -81.7731 179° South  Level Estimated
Tue 11:55:00 AM 25.8674 -81.7727 179° South  Level Estimated
Tue 11:55:30 AM 26.1442 -81.6403 179° South 146 168 7,000  Level Miami Center
Tue 11:56:00 AM 25.8267 -81.7723 179° South  Level Estimated
Tue 11:56:30 AM 26.1247 -81.5953 116° Southeast 164 189 7,000  Level Miami Center
Tue 11:57:00 AM 25.7860 -81.7719 179° South  Level Estimated
Tue 11:57:30 AM 26.1036 -81.5436 114° Southeast 164 189 7,000  Level Miami Center
Tue 11:58:00 AM 25.7452 -81.7715 179° South  Level Estimated
Tue 11:58:30 AM 26.0864 -81.4944 111° Southeast 164 189 7,000  Level Miami Center
Tue 11:59:00 AM 25.7045 -81.7711 179° South  Level Estimated
Tue 11:59:30 AM 26.0669 -81.4453 114° Southeast 169 194 7,000  Level Miami Center
Tue 12:00:30 PM 26.0453 -81.4006 118° Southeast 169 194 7,000  Level Miami Center
Tue 12:01:30 PM 26.0258 -81.3533 115° Southeast 169 194 7,000  Level Miami Center
Tue 12:02:30 PM 26.0067 -81.3042 113° Southeast 169 194 7,000  Level Miami Center
Tue 12:03:30 PM 25.9850 -81.2572 117° Southeast 169 194 7,000 -50 Level Miami Center
Tue 12:04:30 PM 25.9525 -81.2236 137° Southeast 162 186 6,900 -50 Descending Miami Center
Tue 12:05:30 PM 25.9108 -81.2222 178° South 145 167 6,900  Level Miami Center
Tue 12:06:30 PM 25.8628 -81.2203 178° South 159 183 6,900  Level Miami Center
Tue 12:07:30 PM 25.8211 -81.2167 176° South 159 183 6,900  Level Miami Center
Tue 12:08:30 PM 25.7753 -81.2150 178° South 159 183 6,900  Level Miami Center
Tue 12:09:30 PM 25.7294 -81.2086 173° South 159 183 6,900 50 Level Miami Center
Tue 12:10:30 PM 25.6858 -81.2003 170° South 159 183 7,000 50 Climbing Miami Center
Tue 12:11:30 PM 25.6425 -81.1917 170° South 159 183 7,000  Level Miami Center
Tue 12:12:30 PM 25.5986 -81.1856 173° South 159 183 7,000 -50 Level Miami Center
Tue 12:13:30 PM 25.5592 -81.1819 175° South 164 189 6,900  Descending Miami Center
Tue 12:14:30 PM 25.5156 -81.1756 172° South 164 189 7,000 50 Climbing Miami Center
Tue 12:15:30 PM 25.4717 -81.1742 178° South 159 183 7,000 -50 Level Miami Center
Tue 12:16:30 PM 25.4278 -81.1703 175° South 159 183 6,900  Descending Miami Center
Tue 12:17:30 PM 25.3842 -81.1664 175° South 159 183 7,000 50 Climbing Miami Center
Tue 12:18:30 PM 25.3425 -81.1603 172° South 159 183 7,000 -100 Level Miami Center
Tue 12:19:30 PM 25.3008 -81.1567 176° South 159 183 6,800 -1,050 Descending Miami Center
Tue 12:20:30 PM 25.2553 -81.1481 170° South 159 183 4,900 -900 Descending Miami Center
Tue 12:21:30 PM 25.2136 -81.1419 172° South 159 183 5,000 50 Climbing Miami Center
Tue 12:22:30 PM 25.1719 -81.1383 176° South 159 183 5,000  Level Miami Center
Tue 12:23:30 PM 25.1283 -81.1297 170° South 159 183 5,000  Level Miami Center
Tue 12:24:30 PM 25.0867 -81.1283 178° South 159 183 5,000  Level Miami Center
Tue 12:25:30 PM 25.0428 -81.1269 178° South 159 183 5,000  Level Miami Center
Tue 12:26:30 PM 25.0011 -81.1231 175° South 159 183 5,000  Level Miami Center
Tue 12:27:30 PM 24.9553 -81.1192 176° South 159 183 5,000  Level Miami Center
Tue 12:28:30 PM 24.9136 -81.1133 173° South 159 183 5,000  Level Miami Center
Tue 12:29:30 PM 24.8700 -81.1094 175° South 159 183 5,000  Level Miami Center
Tue 12:30:30 PM 24.8261 -81.1033 173° South 159 183 5,000  Level Miami Center
Tue 12:31:30 PM 24.7825 -81.0994 175° South 159 183 5,000 -50 Level Miami Center
Tue 12:32:30 PM 24.7408 -81.0958 175° South 159 183 4,900  Descending Miami Center
Tue 12:33:30 PM 24.7050 -81.1106 200° South 154 177 5,000 -200 Climbing Miami Center
Tue 12:34:30 PM 24.6972 -81.1561 259° West 130 150 4,500 -450 Descending Miami Center
Tue 12:35:30 PM 24.6875 -81.2061 258° West 146 168 4,100 -450 Descending Miami Center
Tue 12:36:30 PM 24.6656 -81.2442 238° Southwest 152 175 3,600 -600 Descending Miami Center
Tue 12:37:30 PM 24.6350 -81.2842 230° Southwest 162 186 2,900 -600 Descending Miami Center
Tue 12:38:30 PM 24.6131 -81.3222 238° Southwest 162 186 2,400 -500 Descending Miami Center
Tue 12:39:30 PM 24.5889 -81.3600 235° Southwest 162 186 1,900 -450 Descending Miami Center
Tue 12:40:30 PM 24.5647 -81.3981 235° Southwest 162 186 1,500 -150 Descending Miami Center
Tue 12:41:30 PM 24.5447 -81.4361 240° Southwest 162 186 1,600 50 Climbing Miami Center
Tue 12:42:30 PM 24.5250 -81.4719 239° Southwest 162 186 1,600  Level Miami Center
Tue 12:44:00 PM 24.5386 -81.5353 283° West  Level FlightAware Approximate
Tue 12:51:00 PM 24.5500 -81.7500 258° West  Level FlightAware Approximate
Tue 12:52:00 PM 24.5561 -81.7596 258° West  Level Estimated
Tue 12:53:00 PM 24.5561 -81.7596 258° West  Level Estimated
Tue 12:54:00 PM 24.5561 -81.7596 258° West  Level Estimated
Tue 12:55:00 PM 24.5561 -81.7596 258° West  Level Estimated
Tue 12:56:00 PM 24.5561 -81.7596 258° West  Level Estimated
Tue 12:57:00 PM 24.5561 -81.7596 258° West  Level Estimated
Tue 12:58:00 PM 24.5561 -81.7596 258° West  Level Estimated
Tue 12:59:00 PM 24.5561 -81.7596 258° West  Level Estimated

Login

Don't have an account? Register now (free) for customized features, flight alerts, and more!